createdAt,value
2022-12-07T00:01:07.111Z,3.71
2022-12-07T00:03:34.940Z,4.04
2022-12-07T00:06:03.592Z,4.30
2022-12-07T00:08:32.518Z,4.12
2022-12-07T00:11:03.658Z,3.60
2022-12-07T00:13:31.671Z,3.46
2022-12-07T00:16:03.917Z,3.05
2022-12-07T00:18:31.557Z,3.54
2022-12-07T00:21:02.206Z,3.95
2022-12-07T00:23:30.089Z,4.17
2022-12-07T00:25:57.648Z,3.99
2022-12-07T00:28:25.187Z,3.54
2022-12-07T00:30:52.694Z,3.34
2022-12-07T00:33:21.549Z,3.51
2022-12-07T00:35:49.110Z,3.39
2022-12-07T00:38:16.615Z,2.71
2022-12-07T00:40:44.180Z,3.20
2022-12-07T00:43:11.695Z,3.20
2022-12-07T00:45:39.258Z,3.00
2022-12-07T00:48:06.834Z,2.87
2022-12-07T00:50:35.711Z,2.80
2022-12-07T00:53:03.240Z,2.80
2022-12-07T00:55:34.771Z,3.43
2022-12-07T00:58:02.285Z,4.11
2022-12-07T01:00:29.855Z,4.49
2022-12-07T01:02:57.437Z,4.34
2022-12-07T01:05:25.018Z,3.90
2022-12-07T01:07:53.981Z,3.63
2022-12-07T01:10:21.549Z,3.58
2022-12-07T01:12:49.119Z,4.33
2022-12-07T01:15:16.825Z,4.02
2022-12-07T01:17:44.330Z,3.48
2022-12-07T01:20:13.164Z,3.29
2022-12-07T01:22:41.569Z,3.10
2022-12-07T01:25:12.219Z,4.06
2022-12-07T01:27:40.073Z,3.13
2022-12-07T01:30:09.117Z,2.65
2022-12-07T01:32:36.650Z,3.16
2022-12-07T01:35:04.383Z,2.93
2022-12-07T01:37:36.485Z,2.71
2022-12-07T01:40:04.637Z,3.11
2022-12-07T01:42:33.585Z,2.84
2022-12-07T01:45:46.976Z,2.88
2022-12-07T01:48:18.427Z,2.69
2022-12-07T01:50:50.427Z,2.49
2022-12-07T01:53:19.844Z,2.75
2022-12-07T01:55:52.035Z,2.70
2022-12-07T01:58:21.834Z,2.52
2022-12-07T02:00:49.337Z,2.92
2022-12-07T02:03:21.623Z,2.86
2022-12-07T02:05:51.024Z,3.04
2022-12-07T02:08:19.082Z,2.75
2022-12-07T02:10:46.642Z,3.18
2022-12-07T02:13:17.539Z,3.28
2022-12-07T02:15:59.924Z,3.54
2022-12-07T02:18:40.151Z,3.16
2022-12-07T02:21:13.356Z,3.01
2022-12-07T02:23:54.142Z,3.56
2022-12-07T02:26:45.261Z,3.07
2022-12-07T02:29:20.201Z,2.92
2022-12-07T02:31:57.048Z,3.44
2022-12-07T02:34:36.745Z,3.14
2022-12-07T02:37:12.239Z,3.86
2022-12-07T02:39:46.071Z,4.37
2022-12-07T02:42:18.127Z,4.43
2022-12-07T02:44:48.338Z,4.43
2022-12-07T02:47:20.526Z,3.95
2022-12-07T02:49:48.279Z,3.59
2022-12-07T02:52:15.785Z,3.65
2022-12-07T02:54:43.292Z,3.20
2022-12-07T02:57:25.884Z,3.09
2022-12-07T03:00:04.855Z,3.19
2022-12-07T03:02:42.668Z,3.74
2022-12-07T03:05:34.727Z,3.73
2022-12-07T03:08:08.532Z,3.00
2022-12-07T03:10:49.825Z,2.77
2022-12-07T03:13:25.482Z,2.85
2022-12-07T03:16:00.510Z,2.61
2022-12-07T03:18:32.530Z,2.87
2022-12-07T03:21:06.907Z,2.97
2022-12-07T03:23:37.580Z,2.49
2022-12-07T03:26:08.477Z,2.69
2022-12-07T03:28:41.931Z,3.29
2022-12-07T03:31:16.783Z,3.06
2022-12-07T03:33:50.550Z,3.09
2022-12-07T03:36:24.040Z,3.27
2022-12-07T03:38:57.969Z,3.46
2022-12-07T03:41:28.900Z,4.11
2022-12-07T03:43:57.598Z,3.63
2022-12-07T03:46:37.581Z,3.61
2022-12-07T03:49:11.969Z,3.29
2022-12-07T03:51:46.016Z,3.26
2022-12-07T03:54:18.350Z,3.25
2022-12-07T03:56:47.834Z,3.53
2022-12-07T03:59:16.609Z,4.00
2022-12-07T04:01:46.276Z,4.58
2022-12-07T04:04:13.856Z,4.31
2022-12-07T04:06:41.380Z,4.47
2022-12-07T04:09:08.885Z,4.06
2022-12-07T04:11:36.408Z,4.40
2022-12-07T04:14:22.314Z,4.61
2022-12-07T04:16:53.001Z,5.16
2022-12-07T04:19:23.283Z,5.32
2022-12-07T04:21:50.836Z,4.79
2022-12-07T04:24:18.890Z,4.00
2022-12-07T04:26:47.378Z,3.96
2022-12-07T04:29:16.456Z,4.03
2022-12-07T04:31:44.607Z,4.00
2022-12-07T04:34:14.090Z,4.38
2022-12-07T04:36:42.533Z,4.50
2022-12-07T04:39:15.780Z,4.18
2022-12-07T04:41:43.323Z,3.63
2022-12-07T04:44:10.928Z,3.33
2022-12-07T04:46:38.451Z,3.55
2022-12-07T04:49:06.006Z,4.13
2022-12-07T04:51:34.876Z,4.23
2022-12-07T04:54:02.392Z,3.96
2022-12-07T04:56:29.939Z,3.53
2022-12-07T04:58:57.588Z,3.02
2022-12-07T05:01:25.878Z,3.12
2022-12-07T05:03:53.560Z,2.84
2022-12-07T05:06:21.658Z,2.68
2022-12-07T05:08:50.647Z,2.75
2022-12-07T05:11:32.475Z,2.72
2022-12-07T05:14:00.010Z,2.63
2022-12-07T05:16:28.084Z,2.59
2022-12-07T05:18:55.637Z,2.88
2022-12-07T05:21:23.330Z,2.63
2022-12-07T05:23:52.253Z,2.79
2022-12-07T05:26:19.834Z,2.64
2022-12-07T05:28:47.352Z,2.81
2022-12-07T05:31:14.920Z,2.13
2022-12-07T05:33:42.440Z,2.28
2022-12-07T05:36:10.151Z,1.93
2022-12-07T05:38:37.702Z,1.72
2022-12-07T05:41:08.504Z,1.83
2022-12-07T05:43:35.059Z,1.80
2022-12-07T05:46:02.635Z,1.68
2022-12-07T05:48:30.221Z,1.55
2022-12-07T05:50:57.728Z,1.48
2022-12-07T05:53:25.269Z,1.55
2022-12-07T05:55:54.038Z,1.33
2022-12-07T05:58:40.381Z,1.16
2022-12-07T06:01:07.883Z,1.14
2022-12-07T06:03:35.493Z,1.02
2022-12-07T06:06:03.088Z,1.16
2022-12-07T06:08:30.714Z,1.19
2022-12-07T06:11:12.193Z,1.29
2022-12-07T06:13:46.822Z,1.32
2022-12-07T06:16:14.824Z,1.38
2022-12-07T06:18:42.397Z,1.48
2022-12-07T06:21:09.950Z,1.69
2022-12-07T06:23:37.456Z,1.40
2022-12-07T06:26:05.103Z,1.31
2022-12-07T06:28:32.599Z,1.25
2022-12-07T06:31:02.223Z,1.19
2022-12-07T06:33:30.710Z,1.42
2022-12-07T06:35:58.261Z,1.58
2022-12-07T06:38:25.815Z,1.63
2022-12-07T06:40:53.335Z,1.46
2022-12-07T06:43:20.845Z,1.37
2022-12-07T06:45:48.384Z,1.20
2022-12-07T06:48:17.274Z,1.40
2022-12-07T06:50:51.179Z,1.56
2022-12-07T06:53:21.825Z,1.81
2022-12-07T06:55:49.390Z,1.74
2022-12-07T06:58:17.146Z,2.17
2022-12-07T07:00:44.823Z,2.05
2022-12-07T07:03:12.762Z,2.55
2022-12-07T07:05:41.610Z,2.83
2022-12-07T07:08:25.065Z,2.83
2022-12-07T07:10:52.674Z,2.85
2022-12-07T07:13:20.202Z,2.59
2022-12-07T07:15:47.783Z,2.73
2022-12-07T07:18:15.315Z,2.14
2022-12-07T07:20:44.149Z,2.53
2022-12-07T07:23:11.693Z,2.71
2022-12-07T07:25:39.531Z,1.99
2022-12-07T07:28:07.439Z,1.77
2022-12-07T07:30:35.051Z,2.01
2022-12-07T07:33:04.079Z,1.97
2022-12-07T07:35:33.158Z,1.78
2022-12-07T07:38:02.347Z,1.42
2022-12-07T07:40:30.646Z,1.60
2022-12-07T07:42:58.928Z,1.55
2022-12-07T07:45:28.267Z,1.59
2022-12-07T07:47:56.063Z,1.89
2022-12-07T07:50:24.140Z,1.68
2022-12-07T07:52:52.109Z,1.59
2022-12-07T07:55:21.074Z,1.87
2022-12-07T07:57:54.553Z,1.67
2022-12-07T08:00:23.787Z,1.59
2022-12-07T08:02:51.358Z,1.78
2022-12-07T08:05:19.188Z,1.73
2022-12-07T08:07:46.773Z,1.65
2022-12-07T08:10:15.729Z,1.81
2022-12-07T08:13:02.991Z,1.96
2022-12-07T08:15:32.412Z,1.78
2022-12-07T08:18:00.668Z,1.83
2022-12-07T08:20:28.356Z,1.76
2022-12-07T08:22:55.910Z,1.77
2022-12-07T08:25:24.028Z,1.97
2022-12-07T08:27:53.548Z,1.82
2022-12-07T08:30:21.768Z,1.84
2022-12-07T08:32:50.248Z,1.80
2022-12-07T08:35:18.574Z,1.84
2022-12-07T08:37:46.091Z,2.07
2022-12-07T08:40:16.070Z,2.08
2022-12-07T08:42:45.457Z,1.95
2022-12-07T08:45:16.330Z,2.02
2022-12-07T08:47:47.447Z,1.95
2022-12-07T08:50:15.976Z,1.90
2022-12-07T08:52:43.729Z,1.92
2022-12-07T08:55:13.057Z,1.91
2022-12-07T08:57:41.447Z,2.07
2022-12-07T09:00:10.100Z,2.16
2022-12-07T09:02:39.280Z,2.20
2022-12-07T09:05:11.815Z,2.12
2022-12-07T09:07:44.259Z,2.22
2022-12-07T09:10:12.556Z,2.40
2022-12-07T09:12:40.103Z,2.62
2022-12-07T09:15:09.364Z,2.78
2022-12-07T09:17:38.184Z,2.89
2022-12-07T09:20:08.972Z,2.99
2022-12-07T09:22:36.513Z,2.99
2022-12-07T09:25:04.926Z,2.86
2022-12-07T09:27:32.860Z,3.17
2022-12-07T09:30:00.716Z,3.20
2022-12-07T09:32:28.693Z,3.66
2022-12-07T09:34:56.356Z,3.66
2022-12-07T09:37:25.267Z,3.64
2022-12-07T09:39:53.107Z,3.70
2022-12-07T09:42:30.685Z,3.35
2022-12-07T09:44:59.470Z,3.27
2022-12-07T09:47:28.012Z,3.43
2022-12-07T09:50:02.360Z,3.43
2022-12-07T09:52:38.522Z,3.22
2022-12-07T09:55:13.604Z,3.48
2022-12-07T09:57:41.702Z,3.61
2022-12-07T10:00:16.794Z,3.61
2022-12-07T10:02:46.801Z,4.25
2022-12-07T10:05:23.585Z,4.90
2022-12-07T10:07:53.376Z,4.74
2022-12-07T10:10:26.707Z,4.56
2022-12-07T10:12:59.637Z,4.88
2022-12-07T10:15:43.943Z,4.51
2022-12-07T10:18:21.706Z,4.21
2022-12-07T10:20:50.026Z,3.99
2022-12-07T10:23:20.148Z,3.73
2022-12-07T10:25:49.132Z,4.20
2022-12-07T10:28:18.895Z,4.77
2022-12-07T10:30:57.658Z,4.57
2022-12-07T10:33:39.864Z,4.68
2022-12-07T10:36:20.419Z,5.20
2022-12-07T10:38:52.182Z,5.09
2022-12-07T10:41:19.969Z,4.04
2022-12-07T10:43:55.475Z,4.38
2022-12-07T10:46:52.933Z,5.06
2022-12-07T10:49:59.107Z,4.62
2022-12-07T10:52:42.971Z,5.74
2022-12-07T10:55:22.065Z,5.65
2022-12-07T10:58:11.524Z,5.86
2022-12-07T11:00:45.521Z,4.44
2022-12-07T11:03:33.185Z,5.28
2022-12-07T11:06:12.416Z,4.97
2022-12-07T11:08:51.319Z,5.80
2022-12-07T11:11:28.916Z,5.43
2022-12-07T11:14:04.207Z,5.71
2022-12-07T11:16:46.414Z,5.60
2022-12-07T11:19:31.052Z,5.23
2022-12-07T11:22:00.438Z,4.67
2022-12-07T11:24:34.744Z,4.58
2022-12-07T11:27:12.579Z,4.54
2022-12-07T11:29:51.572Z,4.58
2022-12-07T11:32:24.512Z,4.52
2022-12-07T11:35:05.208Z,3.94
2022-12-07T11:37:38.192Z,4.20
2022-12-07T11:40:19.329Z,3.81
2022-12-07T11:42:53.476Z,3.80
2022-12-07T11:45:28.067Z,3.95
2022-12-07T11:48:00.437Z,4.03
2022-12-07T11:50:34.866Z,3.57
2022-12-07T11:53:07.385Z,3.65
2022-12-07T11:55:44.854Z,3.82
2022-12-07T11:58:25.051Z,3.48
2022-12-07T12:00:57.045Z,3.61
2022-12-07T12:03:31.282Z,3.71
2022-12-07T12:05:58.990Z,3.56
2022-12-07T12:11:40.535Z,3.69
2022-12-07T12:17:18.978Z,3.08
2022-12-07T12:20:02.012Z,3.43
2022-12-07T12:22:39.032Z,3.34
2022-12-07T12:25:09.253Z,3.34
2022-12-07T12:27:39.814Z,3.39
2022-12-07T12:30:27.666Z,3.49
2022-12-07T12:33:05.290Z,3.58
2022-12-07T12:35:35.042Z,3.28
2022-12-07T12:38:28.866Z,3.41
2022-12-07T12:40:57.182Z,3.16
2022-12-07T12:43:53.160Z,3.41
2022-12-07T12:46:50.158Z,3.36
2022-12-07T12:49:35.828Z,3.48
2022-12-07T12:52:51.312Z,3.48
2022-12-07T12:55:24.471Z,3.60
2022-12-07T12:58:29.383Z,4.52
2022-12-07T13:01:30.231Z,5.20
2022-12-07T13:03:59.724Z,5.34
2022-12-07T13:06:38.983Z,5.78
2022-12-07T13:09:19.923Z,5.18
2022-12-07T13:11:48.325Z,5.26
2022-12-07T13:14:45.235Z,4.99
2022-12-07T13:17:13.827Z,4.69
2022-12-07T13:20:03.792Z,4.01
2022-12-07T13:22:44.342Z,4.07
2022-12-07T13:25:21.297Z,3.86
2022-12-07T13:27:56.042Z,4.00
2022-12-07T13:30:24.181Z,4.45
2022-12-07T13:32:56.116Z,4.61
2022-12-07T13:35:33.023Z,5.15
2022-12-07T13:38:01.495Z,5.21
2022-12-07T13:40:29.066Z,5.44
2022-12-07T13:43:01.074Z,4.80
2022-12-07T13:45:49.019Z,4.99
2022-12-07T13:48:24.181Z,5.43
2022-12-07T13:50:57.586Z,5.89
2022-12-07T13:53:25.743Z,5.99
2022-12-07T13:55:54.880Z,6.38
2022-12-07T13:58:23.634Z,5.77
2022-12-07T14:00:51.881Z,6.11
2022-12-07T14:03:33.135Z,5.87
2022-12-07T14:06:26.148Z,5.12
2022-12-07T14:09:18.546Z,5.82
2022-12-07T14:11:46.720Z,5.78
2022-12-07T14:14:18.799Z,6.23
2022-12-07T14:17:00.813Z,5.09
2022-12-07T14:19:48.614Z,5.46
2022-12-07T14:22:25.229Z,5.08
2022-12-07T14:25:00.253Z,5.62
2022-12-07T14:27:34.901Z,5.76
2022-12-07T14:30:02.880Z,5.31
2022-12-07T14:32:31.866Z,5.31
2022-12-07T14:35:02.388Z,5.62
2022-12-07T14:37:32.290Z,5.89
2022-12-07T14:39:59.827Z,5.87
2022-12-07T14:42:32.488Z,5.92
2022-12-07T14:45:00.969Z,5.79
2022-12-07T14:50:19.769Z,4.64
2022-12-07T14:55:40.611Z,4.00
2022-12-07T14:58:08.160Z,4.01
2022-12-07T15:00:35.992Z,4.50
2022-12-07T15:03:03.525Z,4.25
2022-12-07T15:05:31.158Z,4.94
2022-12-07T15:08:00.183Z,5.34
2022-12-07T15:10:33.748Z,5.81
2022-12-07T15:13:17.638Z,5.45
2022-12-07T15:15:45.293Z,5.22
2022-12-07T15:18:12.900Z,5.72
2022-12-07T15:20:40.456Z,5.38
2022-12-07T15:23:09.915Z,5.79
2022-12-07T15:25:37.610Z,5.31
2022-12-07T15:28:05.309Z,5.14
2022-12-07T15:30:32.827Z,4.88
2022-12-07T15:33:00.372Z,5.30
2022-12-07T15:35:27.903Z,5.54
2022-12-07T15:37:55.428Z,5.63
2022-12-07T15:40:24.330Z,5.89
2022-12-07T15:42:51.856Z,5.45
2022-12-07T15:45:18.560Z,5.62
2022-12-07T15:50:33.956Z,5.45
2022-12-07T15:53:01.459Z,6.03
2022-12-07T15:55:30.327Z,6.11
2022-12-07T15:57:57.844Z,5.94
2022-12-07T16:00:25.700Z,5.82
2022-12-07T16:02:53.274Z,5.44
2022-12-07T16:05:20.876Z,5.73
2022-12-07T16:07:48.782Z,5.62
2022-12-07T16:10:16.558Z,5.34
2022-12-07T16:12:45.437Z,4.77
2022-12-07T16:15:12.987Z,4.76
2022-12-07T16:17:40.503Z,4.12
2022-12-07T16:20:09.161Z,4.66
2022-12-07T16:22:36.687Z,4.33
2022-12-07T16:25:04.811Z,4.44
2022-12-07T16:27:32.428Z,5.08
2022-12-07T16:30:01.277Z,5.33
2022-12-07T16:32:28.787Z,5.06
2022-12-07T16:34:56.311Z,4.87
2022-12-07T16:37:23.824Z,5.09
2022-12-07T16:39:51.360Z,4.70
2022-12-07T16:42:18.960Z,4.98
2022-12-07T16:44:46.462Z,4.98
2022-12-07T16:47:16.022Z,5.36
2022-12-07T16:49:44.539Z,5.50
2022-12-07T16:52:20.674Z,5.07
2022-12-07T16:54:49.211Z,5.07
2022-12-07T16:57:22.329Z,4.87
2022-12-07T16:59:50.411Z,4.65
2022-12-07T17:02:19.299Z,4.07
2022-12-07T17:04:46.827Z,4.46
2022-12-07T17:07:14.447Z,5.21
2022-12-07T17:09:42.017Z,5.57
2022-12-07T17:12:09.559Z,5.55
2022-12-07T17:14:54.881Z,5.03
2022-12-07T17:17:23.740Z,4.98
2022-12-07T17:19:51.252Z,5.18
2022-12-07T17:22:18.815Z,5.04
2022-12-07T17:24:46.330Z,4.59
2022-12-07T17:27:13.888Z,4.51
2022-12-07T17:29:41.407Z,4.89
2022-12-07T17:32:09.018Z,5.20
2022-12-07T17:34:38.731Z,5.09
2022-12-07T17:37:06.237Z,4.73
2022-12-07T17:39:33.754Z,4.67
2022-12-07T17:42:18.747Z,4.18
2022-12-07T17:44:46.258Z,3.97
2022-12-07T17:47:15.599Z,3.77
2022-12-07T17:49:46.550Z,4.02
2022-12-07T17:52:31.847Z,4.19
2022-12-07T17:54:59.378Z,3.98
2022-12-07T17:57:27.005Z,3.84
2022-12-07T17:59:55.404Z,4.12
2022-12-07T18:02:22.951Z,4.16
2022-12-07T18:04:53.002Z,4.44
2022-12-07T18:07:20.570Z,4.36
2022-12-07T18:09:48.072Z,4.24
2022-12-07T18:12:15.671Z,4.11
2022-12-07T18:14:43.179Z,4.18
2022-12-07T18:17:10.792Z,4.24
2022-12-07T18:19:38.424Z,4.07
2022-12-07T18:22:07.308Z,4.81
2022-12-07T18:24:37.103Z,4.41
2022-12-07T18:27:05.258Z,4.35
2022-12-07T18:29:32.793Z,4.29
2022-12-07T18:32:00.350Z,4.12
2022-12-07T18:34:30.278Z,4.23
2022-12-07T18:36:57.863Z,4.61
2022-12-07T18:39:33.038Z,4.72
2022-12-07T18:42:01.431Z,4.92
2022-12-07T18:44:28.940Z,4.81
2022-12-07T18:46:56.435Z,4.56
2022-12-07T18:49:24.011Z,4.86
2022-12-07T18:51:51.551Z,5.09
2022-12-07T18:54:19.050Z,4.88
2022-12-07T18:56:47.906Z,4.87
2022-12-07T18:59:33.062Z,5.00
2022-12-07T19:02:00.719Z,5.20
2022-12-07T19:04:28.454Z,5.02
2022-12-07T19:06:55.974Z,5.05
2022-12-07T19:09:23.511Z,4.68
2022-12-07T19:11:52.825Z,4.33
2022-12-07T19:14:24.546Z,4.39
2022-12-07T19:16:53.391Z,4.26
2022-12-07T19:19:23.021Z,4.18
2022-12-07T19:21:51.223Z,4.20
2022-12-07T19:24:23.094Z,4.33
2022-12-07T19:26:52.642Z,4.51
2022-12-07T19:29:20.346Z,4.16
2022-12-07T19:31:48.003Z,4.14
2022-12-07T19:34:17.531Z,4.25
2022-12-07T19:36:45.832Z,4.23
2022-12-07T19:39:15.351Z,3.94
2022-12-07T19:41:44.066Z,3.92
2022-12-07T19:44:14.977Z,4.20
2022-12-07T19:46:43.636Z,3.81
2022-12-07T19:49:11.229Z,3.93
2022-12-07T19:51:38.765Z,3.72
2022-12-07T19:54:06.440Z,4.02
2022-12-07T19:56:33.969Z,3.82
2022-12-07T19:59:02.926Z,3.98
2022-12-07T20:01:32.003Z,3.71
2022-12-07T20:03:59.632Z,3.47
2022-12-07T20:06:27.947Z,3.48
2022-12-07T20:08:55.469Z,3.69
2022-12-07T20:11:40.722Z,3.59
2022-12-07T20:14:09.244Z,3.35
2022-12-07T20:16:40.123Z,3.68
2022-12-07T20:19:08.684Z,3.29
2022-12-07T20:21:36.304Z,3.01
2022-12-07T20:24:05.173Z,2.85
2022-12-07T20:26:34.592Z,2.79
2022-12-07T20:29:07.871Z,3.06
2022-12-07T20:31:39.128Z,3.63
2022-12-07T20:34:06.699Z,3.77
2022-12-07T20:36:34.259Z,3.89
2022-12-07T20:39:02.841Z,4.11
2022-12-07T20:41:47.888Z,4.30
2022-12-07T20:44:16.026Z,4.11
2022-12-07T20:46:45.336Z,4.40
2022-12-07T20:49:15.202Z,4.09
2022-12-07T20:51:42.742Z,3.89
2022-12-07T20:54:10.558Z,3.56
2022-12-07T20:56:38.148Z,3.60
2022-12-07T20:59:09.634Z,3.56
2022-12-07T21:01:37.962Z,4.29
2022-12-07T21:04:07.178Z,4.07
2022-12-07T21:06:35.139Z,3.81
2022-12-07T21:09:02.720Z,3.52
2022-12-07T21:11:31.716Z,3.79
2022-12-07T21:13:59.843Z,3.58
2022-12-07T21:16:29.654Z,3.41
2022-12-07T21:18:59.964Z,3.28
2022-12-07T21:21:29.747Z,3.05
2022-12-07T21:24:02.087Z,2.84
2022-12-07T21:26:31.028Z,2.70
2022-12-07T21:28:58.575Z,2.87
2022-12-07T21:31:26.734Z,2.78
2022-12-07T21:33:54.468Z,2.95
2022-12-07T21:36:24.199Z,3.49
2022-12-07T21:38:53.461Z,3.36
2022-12-07T21:41:23.631Z,3.22
2022-12-07T21:43:51.958Z,3.51
2022-12-07T21:46:21.038Z,3.11
2022-12-07T21:48:51.826Z,2.87
2022-12-07T21:51:21.000Z,2.85
2022-12-07T21:53:49.845Z,3.01
2022-12-07T21:56:21.236Z,3.22
2022-12-07T21:58:49.852Z,3.25
2022-12-07T22:01:18.994Z,3.30
2022-12-07T22:03:47.259Z,3.23
2022-12-07T22:06:15.538Z,3.45
2022-12-07T22:08:43.165Z,3.21
2022-12-07T22:11:11.268Z,2.69
2022-12-07T22:13:59.065Z,2.25
2022-12-07T22:16:27.481Z,2.10
2022-12-07T22:18:57.399Z,2.03
2022-12-07T22:21:25.567Z,1.88
2022-12-07T22:23:53.559Z,1.98
2022-12-07T22:26:24.416Z,2.11
2022-12-07T22:28:53.697Z,1.94
2022-12-07T22:31:22.238Z,2.15
2022-12-07T22:33:50.254Z,2.05
2022-12-07T22:36:18.452Z,2.04
2022-12-07T22:38:46.821Z,1.78
2022-12-07T22:41:19.424Z,1.35
2022-12-07T22:43:46.995Z,1.25
2022-12-07T22:46:16.227Z,1.17
2022-12-07T22:48:43.813Z,1.04
2022-12-07T22:51:21.696Z,0.96
2022-12-07T22:53:49.291Z,0.99
2022-12-07T22:56:17.223Z,1.17
2022-12-07T22:58:45.213Z,1.56
2022-12-07T23:01:14.197Z,1.85
2022-12-07T23:03:43.651Z,1.59
2022-12-07T23:06:15.038Z,1.29
2022-12-07T23:08:42.603Z,1.22
2022-12-07T23:11:11.000Z,1.17
2022-12-07T23:13:38.085Z,1.34
2022-12-07T23:16:11.644Z,1.49
2022-12-07T23:18:39.908Z,1.96
2022-12-07T23:21:09.812Z,2.43
2022-12-07T23:23:37.361Z,2.31
2022-12-07T23:26:06.384Z,2.48
2022-12-07T23:28:35.217Z,2.22
2022-12-07T23:31:04.020Z,2.28
2022-12-07T23:33:31.630Z,2.38
2022-12-07T23:36:09.966Z,2.16
2022-12-07T23:38:38.448Z,1.93
2022-12-07T23:41:07.962Z,1.93
2022-12-07T23:43:36.783Z,2.09
2022-12-07T23:46:05.087Z,2.00
2022-12-07T23:48:32.623Z,1.92
2022-12-07T23:51:00.263Z,1.94
2022-12-07T23:53:30.297Z,2.02
2022-12-07T23:55:58.101Z,2.08
2022-12-07T23:58:25.621Z,1.86
